Time;durP1;ratioP1;P1;durP2;ratioP2;P2;SDS_P1;SDS_P2;PMS_P1;PMS_P2;Temp;Humidity;BMP_temperature;BMP_pressure;BME280_temperature;BME280_humidity;BME280_pressure;Samples;Min_cycle;Max_cycle;Signal;HPM_P1;HPM_P2
2021/06/21 00:00:15;;;;;;;13.23;7.35;;;;;;;16.10;84.58;100981.72;4997175;28;20077;-70
2021/06/21 00:02:44;;;;;;;15.88;7.57;;;;;;;16.11;84.85;100983.47;4997661;28;20065;-70
2021/06/21 00:05:15;;;;;;;18.23;7.45;;;;;;;16.09;84.44;100984.47;4995950;28;20120;-71
2021/06/21 00:07:44;;;;;;;14.70;7.78;;;;;;;16.06;84.50;100989.06;5002633;28;20074;-70
2021/06/21 00:10:15;;;;;;;17.05;7.40;;;;;;;16.03;84.59;100991.06;4994150;28;20516;-71
2021/06/21 00:12:44;;;;;;;15.88;7.90;;;;;;;16.08;84.99;100996.22;4996828;28;20066;-69
2021/06/21 00:15:15;;;;;;;15.52;7.93;;;;;;;16.04;84.46;101011.66;4999055;28;20629;-69
2021/06/21 00:17:43;;;;;;;15.63;7.80;;;;;;;16.09;84.19;101017.66;4995865;28;20504;-69
2021/06/21 00:20:14;;;;;;;13.95;6.97;;;;;;;16.11;84.36;101023.84;4999139;28;20132;-69
2021/06/21 00:22:43;;;;;;;19.38;8.05;;;;;;;16.11;84.20;101033.75;4998672;28;20068;-69
2021/06/21 00:25:12;;;;;;;14.60;7.55;;;;;;;16.05;83.30;101027.69;4995512;28;20061;-69
2021/06/21 00:27:40;;;;;;;14.73;6.53;;;;;;;16.04;83.22;101039.44;5001757;28;20058;-69
2021/06/21 00:30:12;;;;;;;13.65;6.90;;;;;;;16.01;82.91;101036.03;4995662;28;20104;-68
2021/06/21 00:32:40;;;;;;;16.95;7.65;;;;;;;15.98;83.02;101039.75;5000448;28;20100;-68
2021/06/21 00:35:10;;;;;;;20.15;7.65;;;;;;;15.97;82.37;101034.44;4995346;28;20065;-68
2021/06/21 00:37:39;;;;;;;13.57;6.90;;;;;;;15.86;82.63;101033.16;4997884;28;20169;-69
2021/06/21 00:40:10;;;;;;;15.32;6.90;;;;;;;15.91;82.72;101027.56;4994218;28;20061;-68
2021/06/21 00:42:41;;;;;;;14.07;6.70;;;;;;;15.87;82.98;101018.78;5008392;28;20062;-69
2021/06/21 00:45:11;;;;;;;15.18;6.60;;;;;;;15.80;83.08;101013.78;4995661;28;20487;-69
2021/06/21 00:47:39;;;;;;;12.18;6.35;;;;;;;15.80;82.96;101011.97;4998606;28;20069;-69
2021/06/21 00:50:08;;;;;;;13.88;7.13;;;;;;;15.72;82.64;101021.34;4992787;28;20066;-68
2021/06/21 00:52:37;;;;;;;14.88;6.68;;;;;;;15.70;82.53;101007.97;4999598;28;20108;-68
2021/06/21 00:55:08;;;;;;;13.43;7.30;;;;;;;15.64;82.51;101009.13;4989250;28;20076;-69
2021/06/21 00:57:37;;;;;;;13.80;6.38;;;;;;;15.64;82.02;101009.13;4996414;28;20070;-69
2021/06/21 01:00:08;;;;;;;11.63;6.60;;;;;;;15.59;82.03;101019.25;4994252;28;20119;-69
2021/06/21 01:02:37;;;;;;;13.35;5.65;;;;;;;15.54;82.17;101007.00;4997282;28;20062;-68
2021/06/21 01:05:06;;;;;;;11.40;6.30;;;;;;;15.58;82.35;101020.22;4997596;28;20249;-68
2021/06/21 01:07:34;;;;;;;12.40;6.05;;;;;;;15.51;82.36;101005.34;4994155;28;20073;-69
2021/06/21 01:10:03;;;;;;;13.57;6.38;;;;;;;15.52;82.57;101017.81;4995062;28;20065;-68
2021/06/21 01:12:45;;;;;;;11.75;5.97;;;;;;;15.56;83.04;101014.06;4991927;28;20057;-69
2021/06/21 01:15:15;;;;;;;13.52;6.25;;;;;;;15.60;82.99;101012.94;4994513;28;20527;-69
2021/06/21 01:17:48;;;;;;;12.85;5.97;;;;;;;15.52;82.54;101019.66;4992291;28;20069;-69
2021/06/21 01:20:41;;;;;;;12.07;6.23;;;;;;;15.48;82.84;101018.94;4994135;28;21395;-69
2021/06/21 01:24:07;;;;;;;11.55;6.50;;;;;;;15.41;83.72;101014.78;4991396;28;20304;-70
2021/06/21 01:26:42;;;;;;;11.35;6.38;;;;;;;15.41;83.64;101010.31;4989106;28;20070;-71
2021/06/21 01:29:45;;;;;;;13.38;6.13;;;;;;;15.34;84.58;101016.03;4995019;28;20553;-71
2021/06/21 01:32:26;;;;;;;12.15;6.07;;;;;;;15.34;84.60;101021.44;4987066;28;20096;-71
2021/06/21 01:34:57;;;;;;;12.00;6.03;;;;;;;15.29;85.18;101027.06;4993736;28;20065;-70
2021/06/21 01:37:26;;;;;;;10.55;5.80;;;;;;;15.25;85.92;101017.38;4990197;28;20058;-71
2021/06/21 01:39:56;;;;;;;13.93;6.10;;;;;;;15.25;85.62;101022.75;4991744;28;20436;-70
2021/06/21 01:42:25;;;;;;;12.88;6.50;;;;;;;15.10;86.57;101025.25;4992468;28;20053;-71
2021/06/21 01:45:00;;;;;;;12.02;6.03;;;;;;;15.12;86.85;101023.34;4992619;28;20144;-71
2021/06/21 01:47:30;;;;;;;16.55;6.35;;;;;;;15.18;86.82;101018.63;4992067;28;20062;-71
2021/06/21 01:49:59;;;;;;;14.02;5.43;;;;;;;15.06;86.82;101010.19;4992065;28;20124;-71
2021/06/21 01:52:31;;;;;;;11.20;6.43;;;;;;;15.07;88.00;101020.00;4992396;28;20057;-71
2021/06/21 01:55:00;;;;;;;19.08;8.27;;;;;;;15.05;88.37;101011.16;4993345;28;20054;-71
2021/06/21 01:57:30;;;;;;;15.77;6.50;;;;;;;15.05;89.94;101010.28;4992113;28;20238;-70
2021/06/21 02:00:02;;;;;;;13.63;6.20;;;;;;;15.06;88.27;101004.81;4994081;28;20065;-71
2021/06/21 02:02:32;;;;;;;13.10;6.43;;;;;;;15.05;89.06;101004.91;4992976;28;20057;-71
2021/06/21 02:05:02;;;;;;;17.98;6.57;;;;;;;14.99;89.27;101000.69;4994000;28;20147;-70
2021/06/21 02:07:30;;;;;;;14.15;6.53;;;;;;;14.84;89.87;100996.91;4993119;28;20493;-71
2021/06/21 02:09:59;;;;;;;13.27;6.55;;;;;;;14.78;90.24;100991.84;4991427;28;20220;-71
2021/06/21 02:12:29;;;;;;;13.75;6.95;;;;;;;14.67;90.05;101004.91;4993460;28;20085;-71
2021/06/21 02:14:59;;;;;;;13.05;5.95;;;;;;;14.73;91.05;101004.63;4987670;28;20054;-70
2021/06/21 02:17:30;;;;;;;15.10;6.13;;;;;;;14.71;91.66;101009.19;4991865;28;20066;-71
2021/06/21 02:20:00;;;;;;;13.75;6.82;;;;;;;14.62;90.75;100988.13;4989168;28;20120;-71
2021/06/21 02:22:30;;;;;;;13.70;6.72;;;;;;;14.59;91.52;100996.31;4993706;28;20068;-70
2021/06/21 02:25:01;;;;;;;14.18;6.57;;;;;;;14.57;91.65;101001.72;4989495;28;20165;-70
2021/06/21 02:27:31;;;;;;;12.88;6.60;;;;;;;14.53;91.36;100997.47;4993460;28;20153;-70
2021/06/21 02:30:05;;;;;;;12.25;6.57;;;;;;;14.60;91.60;100993.56;4992614;28;20062;-69
2021/06/21 02:32:33;;;;;;;12.25;5.88;;;;;;;14.48;92.13;100986.91;4991628;28;20062;-69
2021/06/21 02:35:04;;;;;;;12.75;6.18;;;;;;;14.52;93.25;100996.59;4990568;28;20399;-71
2021/06/21 02:37:32;;;;;;;13.40;6.25;;;;;;;14.48;92.58;100992.28;4995333;28;20148;-71
2021/06/21 02:40:00;;;;;;;13.88;6.22;;;;;;;14.46;92.06;101001.38;4992476;28;20151;-70
2021/06/21 02:42:27;;;;;;;12.88;6.50;;;;;;;14.50;92.76;101005.66;4994841;28;20109;-69
2021/06/21 02:44:55;;;;;;;16.48;6.90;;;;;;;14.39;92.45;101006.16;4991210;28;20112;-69
2021/06/21 02:47:23;;;;;;;13.68;6.25;;;;;;;14.46;92.50;101004.91;5003400;28;20054;-68
2021/06/21 02:49:51;;;;;;;13.93;6.93;;;;;;;14.46;92.46;101015.66;4989274;28;20066;-69
2021/06/21 02:52:29;;;;;;;10.10;5.63;;;;;;;14.45;92.26;101013.91;4994579;28;20065;-69
2021/06/21 02:55:09;;;;;;;17.58;5.68;;;;;;;14.39;93.15;101008.84;4990008;28;20438;-69
2021/06/21 02:57:54;;;;;;;11.63;5.93;;;;;;;14.37;93.38;101016.09;4992521;28;20058;-69
2021/06/21 03:00:22;;;;;;;12.43;6.15;;;;;;;14.31;92.71;101016.34;4989855;28;20103;-69
2021/06/21 03:02:52;;;;;;;14.68;6.78;;;;;;;14.38;93.60;101018.69;4991803;28;20053;-69
2021/06/21 03:05:20;;;;;;;14.65;6.88;;;;;;;14.28;93.23;101009.28;5000267;28;20058;-69
2021/06/21 03:07:51;;;;;;;12.95;6.22;;;;;;;14.20;93.14;101012.34;4993564;28;20070;-68
2021/06/21 03:10:20;;;;;;;12.02;6.47;;;;;;;14.11;92.38;101009.19;4991247;28;20066;-69
2021/06/21 03:12:49;;;;;;;13.43;6.53;;;;;;;14.17;93.83;101008.91;4994990;28;20092;-69
2021/06/21 03:15:21;;;;;;;12.18;5.65;;;;;;;14.14;93.39;101001.00;4992504;28;20121;-69
2021/06/21 03:17:51;;;;;;;17.80;7.88;;;;;;;14.14;94.21;100996.50;4999648;28;20084;-69
2021/06/21 03:20:20;;;;;;;16.48;6.40;;;;;;;14.11;94.38;100993.94;4997353;28;20148;-69
2021/06/21 03:22:48;;;;;;;12.50;6.22;;;;;;;14.10;94.87;100994.03;4996690;28;20058;-69
2021/06/21 03:25:24;;;;;;;12.60;6.63;;;;;;;14.03;94.42;100990.75;4996704;28;20054;-69
2021/06/21 03:27:52;;;;;;;13.65;6.10;;;;;;;14.04;94.25;100984.44;4992831;28;20062;-69
2021/06/21 03:30:22;;;;;;;12.38;6.47;;;;;;;14.03;94.88;100988.06;4997045;28;20073;-68
2021/06/21 03:32:52;;;;;;;12.95;6.30;;;;;;;14.10;94.24;100986.84;4993472;28;20370;-69
2021/06/21 03:35:21;;;;;;;12.30;6.50;;;;;;;14.03;94.81;100988.06;4999967;28;20065;-68
2021/06/21 03:37:50;;;;;;;13.45;7.50;;;;;;;13.94;94.67;100983.09;4994094;28;20069;-69
2021/06/21 03:40:20;;;;;;;16.80;6.80;;;;;;;13.97;94.65;100985.66;4994164;28;20066;-68
2021/06/21 03:42:47;;;;;;;13.85;7.78;;;;;;;13.89;95.28;100988.66;4994064;28;20077;-69
2021/06/21 03:45:16;;;;;;;13.13;6.47;;;;;;;13.88;94.83;100978.88;4996881;28;20085;-68
2021/06/21 03:47:44;;;;;;;15.80;6.68;;;;;;;13.87;95.31;100974.44;5001027;28;20068;-68
2021/06/21 03:50:12;;;;;;;14.85;6.63;;;;;;;13.80;94.58;100981.00;4997910;28;20069;-67
2021/06/21 03:52:40;;;;;;;13.18;6.55;;;;;;;13.83;95.02;100980.88;4993073;28;20058;-69
2021/06/21 03:55:09;;;;;;;14.32;7.03;;;;;;;13.78;94.62;100981.06;4998349;28;20072;-71
2021/06/21 03:57:40;;;;;;;19.13;7.32;;;;;;;13.78;95.22;100981.06;4994717;28;20066;-68
2021/06/21 04:00:12;;;;;;;14.90;7.05;;;;;;;13.75;95.59;100975.84;4997070;28;20069;-68
2021/06/21 04:02:40;;;;;;;14.80;6.93;;;;;;;13.73;95.90;100975.03;4995930;28;20091;-69
2021/06/21 04:05:08;;;;;;;13.23;5.93;;;;;;;13.76;96.13;100977.59;4994909;28;20070;-68
2021/06/21 04:07:36;;;;;;;15.50;6.85;;;;;;;13.79;95.70;100976.56;4996944;28;20073;-70
2021/06/21 04:10:05;;;;;;;13.02;6.15;;;;;;;13.78;95.51;100978.41;4995942;28;20077;-69
2021/06/21 04:12:34;;;;;;;17.70;6.72;;;;;;;13.77;95.36;100981.16;4994146;28;20088;-69
2021/06/21 04:15:05;;;;;;;15.10;6.75;;;;;;;13.74;95.94;100975.91;4995859;28;20058;-69
2021/06/21 04:17:33;;;;;;;12.85;6.15;;;;;;;13.74;95.96;100986.63;4993684;28;20062;-71
2021/06/21 04:20:03;;;;;;;17.10;6.55;;;;;;;13.75;95.55;100977.66;4997081;28;20208;-69
2021/06/21 04:22:30;;;;;;;13.88;6.72;;;;;;;13.73;95.20;100977.72;4993541;28;20479;-69
2021/06/21 04:24:58;;;;;;;14.32;6.72;;;;;;;13.73;95.84;100982.22;4992510;28;20088;-69
2021/06/21 04:27:26;;;;;;;16.83;6.57;;;;;;;13.66;95.60;100978.06;4994519;28;20386;-70
2021/06/21 04:29:54;;;;;;;16.35;6.68;;;;;;;13.66;95.78;100970.88;4992863;28;20092;-69
2021/06/21 04:32:23;;;;;;;12.02;6.40;;;;;;;13.70;96.43;100971.63;4999743;28;20479;-69
2021/06/21 04:34:51;;;;;;;14.70;6.93;;;;;;;13.64;96.06;100972.78;4993913;28;20055;-69
2021/06/21 04:37:22;;;;;;;14.30;7.50;;;;;;;13.65;95.76;100974.50;4996869;28;20068;-68
2021/06/21 04:39:49;;;;;;;14.48;7.50;;;;;;;13.62;96.01;100978.19;4993026;28;20080;-70
2021/06/21 04:42:17;;;;;;;13.95;7.07;;;;;;;13.60;96.41;100977.41;4994302;28;20065;-69
2021/06/21 04:44:45;;;;;;;16.83;8.00;;;;;;;13.56;96.01;100974.91;4991468;28;20053;-68
2021/06/21 04:47:13;;;;;;;15.45;8.27;;;;;;;13.55;95.30;100979.41;4992924;28;20116;-70
2021/06/21 04:49:42;;;;;;;17.27;8.02;;;;;;;13.38;95.60;100977.44;4992924;28;20065;-69
2021/06/21 04:52:11;;;;;;;15.10;7.28;;;;;;;13.45;96.08;100978.03;4996025;28;20074;-70
2021/06/21 04:54:39;;;;;;;19.95;8.50;;;;;;;13.38;96.41;100979.22;4990958;28;20066;-70
2021/06/21 04:57:08;;;;;;;15.88;8.00;;;;;;;13.32;95.83;100976.81;4993103;28;20081;-68
2021/06/21 04:59:36;;;;;;;18.02;7.65;;;;;;;13.16;96.25;100977.41;4991773;28;20429;-68
2021/06/21 05:02:04;;;;;;;17.02;9.13;;;;;;;13.20;96.67;100972.78;4993848;28;20101;-69
2021/06/21 05:04:32;;;;;;;17.88;8.65;;;;;;;13.19;96.67;100968.34;4992437;28;20101;-70
2021/06/21 05:07:01;;;;;;;19.85;8.50;;;;;;;13.22;95.80;100966.41;4990961;28;20144;-70
2021/06/21 05:09:29;;;;;;;19.00;8.60;;;;;;;13.25;96.32;100974.31;4993582;28;20301;-69
2021/06/21 05:11:57;;;;;;;15.65;8.43;;;;;;;13.16;95.92;100972.03;4989234;28;20058;-70
2021/06/21 05:14:24;;;;;;;17.70;8.55;;;;;;;13.23;96.83;100972.66;4993816;28;20066;-69
2021/06/21 05:16:52;;;;;;;16.35;8.27;;;;;;;13.14;96.20;100971.19;4990507;28;20076;-69
2021/06/21 05:19:20;;;;;;;15.30;8.20;;;;;;;13.22;96.36;100966.41;4994014;28;20066;-69
2021/06/21 05:21:48;;;;;;;22.13;9.05;;;;;;;13.24;96.65;100972.56;4994321;28;20334;-68
2021/06/21 05:24:17;;;;;;;18.67;9.35;;;;;;;13.23;96.46;100980.69;4989447;28;20187;-70
2021/06/21 05:26:45;;;;;;;19.33;8.63;;;;;;;13.24;96.73;100974.38;4991555;28;20124;-68
2021/06/21 05:29:13;;;;;;;18.65;8.30;;;;;;;13.30;96.84;100979.50;4997276;28;20057;-68
2021/06/21 05:31:41;;;;;;;15.73;7.70;;;;;;;13.25;96.37;100976.16;4990490;28;20065;-68
2021/06/21 05:34:09;;;;;;;16.83;7.80;;;;;;;13.23;96.23;100984.25;4995800;28;20066;-68
2021/06/21 05:36:37;;;;;;;17.40;8.52;;;;;;;13.30;96.53;100987.53;4999527;28;20061;-68
2021/06/21 05:39:05;;;;;;;16.00;8.68;;;;;;;13.34;97.12;100975.78;4994479;28;20077;-68
2021/06/21 05:41:34;;;;;;;20.15;8.57;;;;;;;13.31;96.09;100981.22;4994201;28;20068;-69
2021/06/21 05:44:02;;;;;;;14.52;7.93;;;;;;;13.31;96.29;100988.41;4991879;28;20088;-68
2021/06/21 05:46:30;;;;;;;17.60;7.72;;;;;;;13.23;96.15;100984.25;4993229;28;20060;-69
2021/06/21 05:48:58;;;;;;;16.17;8.02;;;;;;;13.28;96.88;100989.44;4996333;28;20072;-69
2021/06/21 05:51:26;;;;;;;17.83;8.80;;;;;;;13.38;96.92;100987.25;4989839;28;20065;-69
2021/06/21 05:53:54;;;;;;;16.13;8.32;;;;;;;13.30;97.28;100992.00;4991457;28;20061;-69
2021/06/21 05:56:22;;;;;;;14.30;7.63;;;;;;;13.21;96.08;100999.53;4989916;28;21078;-68
2021/06/21 05:58:51;;;;;;;11.32;6.70;;;;;;;13.24;96.66;101003.88;4992028;28;20057;-69
2021/06/21 06:01:19;;;;;;;18.00;7.45;;;;;;;13.19;95.90;101012.09;4990857;28;20144;-69
2021/06/21 06:03:48;;;;;;;16.13;7.03;;;;;;;13.19;96.17;101009.41;4989639;28;20085;-69
2021/06/21 06:06:15;;;;;;;19.38;8.48;;;;;;;13.27;96.89;101018.00;4994345;28;20438;-69
2021/06/21 06:08:43;;;;;;;20.23;8.73;;;;;;;13.29;95.79;101017.09;4987538;28;20120;-69
2021/06/21 06:11:11;;;;;;;17.45;8.10;;;;;;;13.23;95.79;101019.06;4996632;28;20069;-69
2021/06/21 06:13:39;;;;;;;14.98;7.57;;;;;;;13.20;96.30;101021.00;4988435;28;20058;-69
2021/06/21 06:16:08;;;;;;;16.40;7.65;;;;;;;13.22;96.54;101022.69;4991855;28;20070;-68
2021/06/21 06:18:36;;;;;;;16.75;7.90;;;;;;;13.22;96.54;101033.41;4989399;28;20069;-67
2021/06/21 06:21:04;;;;;;;18.95;8.13;;;;;;;13.31;97.00;101040.19;4992478;28;20062;-69
2021/06/21 06:23:38;;;;;;;17.25;8.85;;;;;;;13.20;96.32;101040.63;4994397;28;20065;-68
2021/06/21 06:26:07;;;;;;;15.63;7.72;;;;;;;13.25;96.10;101057.41;4992314;28;20050;-68
2021/06/21 06:28:34;;;;;;;17.40;7.75;;;;;;;13.30;96.38;101050.97;4991600;28;20070;-69
2021/06/21 06:31:02;;;;;;;16.73;7.20;;;;;;;13.30;96.25;101050.97;4991677;28;20058;-69
2021/06/21 06:33:31;;;;;;;17.00;7.28;;;;;;;13.29;96.38;101046.56;4988755;28;20089;-69
2021/06/21 06:35:59;;;;;;;19.50;9.43;;;;;;;13.22;96.28;101053.97;4994142;28;20152;-70
2021/06/21 06:38:27;;;;;;;17.75;8.10;;;;;;;13.31;96.57;101052.72;4988836;28;20551;-69
2021/06/21 06:40:55;;;;;;;16.67;7.93;;;;;;;13.29;96.14;101052.78;4995713;28;20279;-69
2021/06/21 06:43:23;;;;;;;15.50;7.28;;;;;;;13.31;97.06;101055.41;4990094;28;20322;-71
2021/06/21 06:45:51;;;;;;;16.80;7.72;;;;;;;13.27;96.49;101058.19;4994309;28;20135;-68
2021/06/21 06:48:19;;;;;;;17.00;7.70;;;;;;;13.34;96.79;101056.19;4995017;28;20054;-69
2021/06/21 06:50:48;;;;;;;16.60;7.45;;;;;;;13.35;96.31;101065.97;4993042;28;20387;-68
2021/06/21 06:53:25;;;;;;;20.70;8.18;;;;;;;13.44;96.95;101067.41;4997012;28;20329;-69
2021/06/21 06:58:38;;;;;;;12.75;6.75;;;;;;;13.42;96.70;101067.47;4995438;28;20054;-68
2021/06/21 07:01:06;;;;;;;12.70;6.53;;;;;;;13.42;96.02;101078.19;4994731;28;20058;-68
2021/06/21 07:03:34;;;;;;;17.63;6.47;;;;;;;13.51;96.95;101087.66;4995474;28;20108;-68
2021/06/21 07:06:04;;;;;;;17.40;7.32;;;;;;;13.35;95.55;101082.06;4994415;28;20065;-68
2021/06/21 07:08:32;;;;;;;13.32;6.93;;;;;;;13.48;96.79;101092.28;4995791;28;20073;-69
2021/06/21 07:11:00;;;;;;;12.55;7.57;;;;;;;13.51;97.54;101090.34;4995708;28;20065;-69
2021/06/21 07:13:28;;;;;;;13.43;6.80;;;;;;;13.45;94.88;101094.16;4996155;28;20255;-68
2021/06/21 07:15:56;;;;;;;15.18;6.55;;;;;;;13.47;96.43;101091.44;4992587;28;20085;-69
2021/06/21 07:18:24;;;;;;;14.02;5.90;;;;;;;13.59;97.38;101098.09;4989995;28;20069;-68
2021/06/21 07:20:52;;;;;;;15.63;7.57;;;;;;;13.59;96.90;101098.09;4998162;28;20076;-69
2021/06/21 07:23:21;;;;;;;15.60;7.65;;;;;;;13.68;97.22;101099.53;4996446;28;20125;-69
2021/06/21 07:25:48;;;;;;;13.32;6.60;;;;;;;13.64;96.97;101106.84;5000111;28;20096;-68
2021/06/21 07:28:16;;;;;;;15.50;6.90;;;;;;;13.65;96.48;101103.19;4998385;28;20083;-68
2021/06/21 07:30:45;;;;;;;11.00;6.05;;;;;;;13.57;96.54;101114.25;5000024;28;20065;-69
2021/06/21 07:33:12;;;;;;;11.88;6.70;;;;;;;13.60;97.01;101114.13;5001249;28;20070;-69
2021/06/21 07:35:41;;;;;;;13.77;5.50;;;;;;;13.65;95.57;101116.59;4997678;28;20068;-68
2021/06/21 07:38:09;;;;;;;13.35;6.20;;;;;;;13.59;95.98;101116.88;5002876;28;20073;-69
2021/06/21 07:40:39;;;;;;;12.07;5.75;;;;;;;13.67;96.32;101119.22;4995698;28;20680;-69
2021/06/21 07:43:07;;;;;;;12.23;6.22;;;;;;;13.71;96.21;101126.22;5002201;28;20062;-70
2021/06/21 07:45:35;;;;;;;10.20;5.47;;;;;;;13.77;96.65;101132.22;4992128;28;20072;-68
2021/06/21 07:48:04;;;;;;;11.80;5.40;;;;;;;13.69;95.94;101128.06;4997611;28;20066;-68
2021/06/21 07:50:32;;;;;;;17.25;8.88;;;;;;;13.75;97.25;101133.19;4996004;28;20065;-68
2021/06/21 07:53:01;;;;;;;10.80;6.10;;;;;;;13.77;96.60;101137.59;4995743;28;20059;-69
2021/06/21 07:55:29;;;;;;;15.55;5.63;;;;;;;13.74;95.78;101137.69;4996139;28;20088;-68
2021/06/21 07:57:59;;;;;;;12.63;5.97;;;;;;;13.76;96.07;101138.50;4996800;28;20070;-69
2021/06/21 08:00:27;;;;;;;13.02;5.57;;;;;;;13.85;96.23;101149.81;4993244;28;20073;-68
2021/06/21 08:02:57;;;;;;;11.65;5.50;;;;;;;13.79;96.23;101153.59;4994840;28;20066;-68
2021/06/21 08:05:25;;;;;;;10.60;4.72;;;;;;;13.77;95.63;101152.78;4991545;28;20053;-68
2021/06/21 08:07:52;;;;;;;12.18;5.40;;;;;;;13.85;95.53;101152.47;4997379;28;20145;-68
2021/06/21 08:10:20;;;;;;;10.45;5.30;;;;;;;13.81;96.29;101165.16;4995219;28;20066;-68
2021/06/21 08:12:51;;;;;;;10.82;5.88;;;;;;;13.86;95.66;101159.56;4998624;28;20068;-68
2021/06/21 08:15:20;;;;;;;14.75;6.53;;;;;;;13.88;96.13;101163.09;4994445;28;20089;-68
2021/06/21 08:17:49;;;;;;;12.75;7.10;;;;;;;13.87;95.80;101170.25;4995703;28;20097;-68
2021/06/21 08:20:17;;;;;;;16.05;7.60;;;;;;;13.78;95.79;101174.19;4994115;28;20115;-68
2021/06/21 08:22:45;;;;;;;16.75;7.22;;;;;;;13.72;95.67;101171.72;4995123;28;20061;-68
2021/06/21 08:25:13;;;;;;;13.90;6.88;;;;;;;13.71;95.21;101175.34;4999865;28;20645;-68
2021/06/21 08:27:41;;;;;;;14.18;7.53;;;;;;;13.79;96.83;101175.94;4992546;28;20069;-68
2021/06/21 08:30:10;;;;;;;13.60;6.65;;;;;;;13.85;95.62;101180.16;4998860;28;20681;-67
2021/06/21 08:32:40;;;;;;;14.48;7.05;;;;;;;13.86;95.64;101175.66;4994262;28;20068;-68
2021/06/21 08:35:09;;;;;;;13.35;7.25;;;;;;;13.80;95.82;101174.97;4999813;28;20073;-68
2021/06/21 08:37:38;;;;;;;13.05;7.30;;;;;;;13.87;96.25;101169.38;4995181;28;20481;-68
2021/06/21 08:40:08;;;;;;;14.20;7.45;;;;;;;13.83;95.86;101177.53;5004742;28;20539;-67
2021/06/21 08:42:36;;;;;;;14.48;8.43;;;;;;;13.96;96.88;101185.09;4997083;28;20069;-67
2021/06/21 08:45:06;;;;;;;13.35;6.93;;;;;;;13.73;95.24;101184.22;4997736;28;20054;-67
2021/06/21 08:47:34;;;;;;;12.75;6.90;;;;;;;13.93;96.25;101193.28;4993701;28;20100;-69
2021/06/21 08:50:06;;;;;;;12.15;6.82;;;;;;;13.92;95.48;101188.84;4996506;28;20101;-68
2021/06/21 08:52:34;;;;;;;13.15;6.70;;;;;;;13.94;94.99;101195.88;4992964;28;20062;-67
2021/06/21 08:55:04;;;;;;;13.15;6.85;;;;;;;13.76;94.37;101193.97;4997127;28;20062;-67
2021/06/21 08:57:33;;;;;;;12.55;6.57;;;;;;;13.74;94.91;101202.06;4993969;28;20057;-70
2021/06/21 09:00:01;;;;;;;14.75;6.72;;;;;;;13.79;95.40;101194.72;4995229;28;20162;-68
2021/06/21 09:02:29;;;;;;;13.45;6.53;;;;;;;13.80;94.78;101192.88;4999977;28;20336;-68
2021/06/21 09:04:57;;;;;;;12.88;6.30;;;;;;;13.87;95.76;101193.53;4994827;28;20357;-67
2021/06/21 09:07:28;;;;;;;11.77;5.90;;;;;;;13.93;95.69;101195.97;4994649;28;20069;-68
2021/06/21 09:09:57;;;;;;;13.55;6.28;;;;;;;13.86;94.34;101202.50;4997378;28;20461;-68
2021/06/21 09:12:27;;;;;;;12.13;6.22;;;;;;;13.87;94.32;101205.13;4992818;28;20069;-67
2021/06/21 09:14:57;;;;;;;12.13;6.78;;;;;;;13.85;94.44;101203.44;4997922;28;20511;-68
2021/06/21 09:17:26;;;;;;;11.30;5.82;;;;;;;13.86;94.53;101213.22;4996671;28;20065;-69
2021/06/21 09:19:56;;;;;;;12.48;6.72;;;;;;;13.88;94.70;101206.00;4997634;28;20062;-68
2021/06/21 09:22:28;;;;;;;12.10;5.43;;;;;;;13.90;94.14;101212.19;4997789;28;20058;-68
2021/06/21 09:24:56;;;;;;;9.57;5.15;;;;;;;13.86;93.76;101208.75;4995691;28;20069;-68
2021/06/21 09:27:25;;;;;;;10.07;5.38;;;;;;;13.88;93.25;101209.56;4999023;28;20065;-71
2021/06/21 09:29:53;;;;;;;11.15;5.50;;;;;;;13.92;93.74;101213.00;4991250;28;20172;-68
2021/06/21 09:32:41;;;;;;;13.07;5.93;;;;;;;13.90;93.70;101212.19;5000820;28;20058;-68
2021/06/21 09:35:12;;;;;;;11.13;5.05;;;;;;;13.92;94.52;101211.16;4991922;28;20062;-69
2021/06/21 09:37:47;;;;;;;11.55;5.88;;;;;;;13.99;94.58;101204.59;5000060;28;20089;-69
2021/06/21 09:40:32;;;;;;;11.77;5.88;;;;;;;13.91;93.77;101201.38;4993123;28;20065;-69
2021/06/21 09:43:17;;;;;;;10.93;5.25;;;;;;;13.79;93.84;101193.81;4994366;28;20062;-68
2021/06/21 09:46:07;;;;;;;9.43;5.32;;;;;;;13.85;94.00;101200.75;4996451;28;20236;-68
2021/06/21 09:48:36;;;;;;;9.25;4.70;;;;;;;13.79;92.76;101205.44;4993918;28;20718;-68
2021/06/21 09:51:26;;;;;;;8.55;5.22;;;;;;;13.64;93.03;101225.69;4995951;28;20062;-69
2021/06/21 09:53:57;;;;;;;9.88;4.90;;;;;;;13.71;93.44;101231.69;4990412;28;20066;-67
2021/06/21 09:56:33;;;;;;;10.32;4.68;;;;;;;13.75;93.19;101227.94;4994829;28;20058;-68
2021/06/21 09:59:01;;;;;;;10.55;5.20;;;;;;;13.74;93.74;101233.34;4997984;28;20073;-69
2021/06/21 10:01:30;;;;;;;14.73;5.05;;;;;;;13.78;94.06;101232.31;4991989;28;20054;-69
2021/06/21 10:03:58;;;;;;;9.27;4.53;;;;;;;13.77;93.37;101230.56;5001631;28;20061;-68
2021/06/21 10:06:37;;;;;;;8.80;4.38;;;;;;;13.80;92.88;101228.63;4991083;28;20051;-68
2021/06/21 10:09:06;;;;;;;10.18;4.60;;;;;;;13.81;93.17;101230.38;4996099;28;20531;-68
2021/06/21 10:11:36;;;;;;;10.00;4.50;;;;;;;13.75;92.55;101227.06;4990852;28;20149;-67
2021/06/21 10:14:06;;;;;;;10.02;4.18;;;;;;;13.71;92.07;101234.34;4995677;28;20069;-68
2021/06/21 10:16:35;;;;;;;9.95;4.53;;;;;;;13.63;92.59;101236.44;4989736;28;20049;-68
2021/06/21 10:19:04;;;;;;;11.93;4.65;;;;;;;13.78;93.41;101238.53;4993385;28;20477;-67
2021/06/21 10:21:34;;;;;;;9.07;4.90;;;;;;;13.84;93.68;101237.41;4990708;28;20070;-68
2021/06/21 10:24:02;;;;;;;11.20;5.85;;;;;;;13.79;93.26;101234.94;4996699;28;20137;-68
2021/06/21 10:26:31;;;;;;;10.82;4.80;;;;;;;13.88;93.06;101240.88;4993969;28;20460;-68
2021/06/21 10:28:59;;;;;;;10.52;4.93;;;;;;;13.91;92.47;101244.31;5001324;28;20375;-68
2021/06/21 10:31:29;;;;;;;10.50;5.50;;;;;;;14.15;93.88;101239.75;4994683;28;20086;-71
2021/06/21 10:33:59;;;;;;;10.73;5.82;;;;;;;14.09;93.52;101231.94;5002216;28;20495;-67
2021/06/21 10:36:40;;;;;;;11.68;7.10;;;;;;;14.30;93.59;101249.00;4994703;28;20081;-67
2021/06/21 10:39:10;;;;;;;10.77;5.10;;;;;;;14.30;93.19;101245.44;4998510;28;20065;-68
2021/06/21 10:41:40;;;;;;;12.05;5.43;;;;;;;14.38;92.40;101249.53;4995472;28;20164;-68
2021/06/21 10:44:08;;;;;;;12.52;6.10;;;;;;;14.46;91.98;101251.91;4999474;28;20065;-68
2021/06/21 10:46:36;;;;;;;10.00;5.32;;;;;;;14.42;90.90;101258.38;4997926;28;20050;-67
2021/06/21 10:49:35;;;;;;;9.45;4.97;;;;;;;14.44;90.86;101261.84;4998554;28;20129;-68
2021/06/21 10:52:31;;;;;;;9.02;5.07;;;;;;;14.41;91.59;101258.44;4995462;28;20068;-69
2021/06/21 10:55:35;;;;;;;13.85;5.72;;;;;;;14.50;92.98;101249.97;5000657;28;20062;-68
2021/06/21 10:58:06;;;;;;;13.30;5.93;;;;;;;14.60;90.74;101261.25;4994624;28;20066;-69
2021/06/21 11:00:36;;;;;;;11.55;5.57;;;;;;;14.65;91.03;101261.94;5006169;28;20299;-68
2021/06/21 11:03:34;;;;;;;9.75;5.13;;;;;;;14.62;90.83;101265.59;4994338;28;20070;-69
2021/06/21 11:06:03;;;;;;;9.43;5.72;;;;;;;14.69;90.66;101268.91;5000590;28;20527;-69
2021/06/21 11:08:43;;;;;;;11.50;5.57;;;;;;;14.62;92.41;101281.72;4994750;28;20157;-68
2021/06/21 11:11:43;;;;;;;12.20;5.88;;;;;;;14.60;92.63;101280.91;5001656;28;20100;-68
2021/06/21 11:14:15;;;;;;;11.57;6.20;;;;;;;14.59;92.29;101289.88;4995284;28;20065;-69
2021/06/21 11:16:44;;;;;;;11.75;6.43;;;;;;;14.63;92.05;101288.84;4998590;28;20149;-69
2021/06/21 11:19:29;;;;;;;9.85;5.47;;;;;;;14.71;92.07;101297.47;4996761;28;20057;-68
2021/06/21 11:21:59;;;;;;;9.48;5.07;;;;;;;14.54;90.85;101286.50;4997905;28;20923;-68
2021/06/21 11:24:49;;;;;;;11.52;5.18;;;;;;;14.62;90.53;101294.28;4993797;28;20072;-68
2021/06/21 11:27:18;;;;;;;11.65;5.40;;;;;;;14.83;91.43;101305.91;4995968;28;20468;-68
2021/06/21 11:29:49;;;;;;;9.02;5.00;;;;;;;14.92;90.77;101303.72;4997242;28;20100;-69
2021/06/21 11:32:18;;;;;;;12.18;5.55;;;;;;;14.85;89.67;101301.38;4995939;28;20070;-67
2021/06/21 11:34:49;;;;;;;10.30;5.78;;;;;;;14.94;90.04;101312.59;4994642;28;20053;-68